KFOZ

Bigfork Municipal Airport

Bigfork, Minnesota, USA
METAR KFOZ 182253Z AUTO 00000KT 10SM CLR M03/M06 A2975 RMK AO2
Observed Flight Rules
Dec-18 @ 22:53 UTC (30 minutes ago) Visual Flight Rules
Visibility Clouds
10 miles
  • Clear skies
Temperatures Readings
Current -3°C / 27°F
Dewpoint -6°C / 21°F
Humidity 80%
Altimeter 29.75" Hg
Pressure 1007 hPa
Elevation 411
METAR KFOZ 182253Z AUTO 00000KT 10SM CLR M03/M06 A2975 RMK AO2
Observed Flight Rules
Dec-18 @ 22:53 UTC
(30 minutes ago)
VFR
Clouds
  • Clear skies
Temperature Dewpoint
-3°C / 27°F -6°C / 21°F
Humidity Altimeter Pressure
80% 29.75" Hg 1007 hPa